createdAt,value
2024-02-16T00:00:09.344Z,39.12
2024-02-16T00:01:09.322Z,36.03
2024-02-16T00:02:09.268Z,38.28
2024-02-16T00:03:09.312Z,41.07
2024-02-16T00:04:09.328Z,41.40
2024-02-16T00:05:09.538Z,40.57
2024-02-16T00:06:09.290Z,40.12
2024-02-16T00:07:09.341Z,40.06
2024-02-16T00:08:09.270Z,37.70
2024-02-16T00:09:09.254Z,37.28
2024-02-16T00:10:09.316Z,36.48
2024-02-16T00:11:09.253Z,36.94
2024-02-16T00:12:09.262Z,36.70
2024-02-16T00:13:09.261Z,37.57
2024-02-16T00:14:09.258Z,36.79
2024-02-16T00:15:09.357Z,34.62
2024-02-16T00:16:09.287Z,32.33
2024-02-16T00:17:09.298Z,31.34
2024-02-16T00:18:09.368Z,31.38
2024-02-16T00:19:09.380Z,30.04
2024-02-16T00:20:09.391Z,27.94
2024-02-16T00:21:09.431Z,29.51
2024-02-16T00:22:09.394Z,34.04
2024-02-16T00:23:09.372Z,33.06
2024-02-16T00:24:09.357Z,33.58
2024-02-16T00:25:09.388Z,33.52
2024-02-16T00:26:09.493Z,35.81
2024-02-16T00:27:09.595Z,36.18
2024-02-16T00:28:09.505Z,35.71
2024-02-16T00:29:09.533Z,35.41
2024-02-16T00:30:09.679Z,35.76
2024-02-16T00:31:09.769Z,35.65
2024-02-16T00:32:09.696Z,36.46
2024-02-16T00:33:09.918Z,36.92
2024-02-16T00:34:10.040Z,34.87
2024-02-16T00:35:10.068Z,36.08
2024-02-16T00:36:10.226Z,37.78
2024-02-16T00:37:10.041Z,37.94
2024-02-16T00:38:10.198Z,39.14
2024-02-16T00:39:10.194Z,39.05
2024-02-16T00:40:10.339Z,35.64
2024-02-16T00:41:10.276Z,33.15
2024-02-16T00:42:10.416Z,32.98
2024-02-16T00:43:10.384Z,30.85
2024-02-16T00:44:10.385Z,31.65
2024-02-16T00:45:10.630Z,32.21
2024-02-16T00:46:10.505Z,31.17
2024-02-16T00:47:10.501Z,28.97
2024-02-16T00:48:10.583Z,26.77
2024-02-16T00:49:10.665Z,25.85
2024-02-16T00:50:10.880Z,24.29
2024-02-16T00:51:10.812Z,23.12
2024-02-16T00:52:10.756Z,22.60
2024-02-16T00:53:10.844Z,21.69
2024-02-16T00:54:10.966Z,22.79
2024-02-16T00:55:10.992Z,22.48
2024-02-16T00:56:10.987Z,22.84
2024-02-16T00:57:11.136Z,23.32
2024-02-16T00:58:11.095Z,23.82
2024-02-16T00:59:11.107Z,24.08
2024-02-16T01:00:11.188Z,23.20
2024-02-16T01:01:11.125Z,22.34
2024-02-16T01:02:11.222Z,21.12
2024-02-16T01:03:11.256Z,18.82
2024-02-16T01:04:11.304Z,18.03
2024-02-16T01:05:11.789Z,17.42
2024-02-16T01:06:11.350Z,16.46
2024-02-16T01:07:11.416Z,15.90
2024-02-16T01:08:11.408Z,14.70
2024-02-16T01:09:11.419Z,13.98
2024-02-16T01:10:11.442Z,13.58
2024-02-16T01:11:11.525Z,13.34
2024-02-16T01:12:11.546Z,12.57
2024-02-16T01:13:11.487Z,11.74
2024-02-16T01:14:11.568Z,11.51
2024-02-16T01:15:11.668Z,11.30
2024-02-16T01:16:11.680Z,10.26
2024-02-16T01:17:11.657Z,9.85
2024-02-16T01:18:11.789Z,9.71
2024-02-16T01:19:11.902Z,9.04
2024-02-16T01:20:12.468Z,8.64
2024-02-16T01:21:11.877Z,8.27
2024-02-16T01:22:11.860Z,7.96
2024-02-16T01:23:11.877Z,8.07
2024-02-16T01:24:12.128Z,8.62
2024-02-16T01:25:12.000Z,8.79
2024-02-16T01:26:12.055Z,9.02
2024-02-16T01:27:12.097Z,9.52
2024-02-16T01:28:12.140Z,10.48
2024-02-16T01:29:12.163Z,11.87
2024-02-16T01:30:12.496Z,14.05
2024-02-16T01:31:12.262Z,15.04
2024-02-16T01:32:12.339Z,16.30
2024-02-16T01:33:12.430Z,19.90
2024-02-16T01:34:12.519Z,24.32
2024-02-16T01:35:12.681Z,26.15
2024-02-16T01:36:12.533Z,26.76
2024-02-16T01:37:12.582Z,26.83
2024-02-16T01:38:12.537Z,28.27
2024-02-16T01:39:12.765Z,27.69
2024-02-16T01:40:12.864Z,26.01
2024-02-16T01:41:12.823Z,25.45
2024-02-16T01:42:12.834Z,24.91
2024-02-16T01:43:12.812Z,26.73
2024-02-16T01:44:12.831Z,26.85
2024-02-16T01:45:12.902Z,26.38
2024-02-16T01:46:12.936Z,25.35
2024-02-16T01:47:13.003Z,26.62
2024-02-16T01:48:13.216Z,26.96
2024-02-16T01:49:13.109Z,27.09
2024-02-16T01:50:13.110Z,26.29
2024-02-16T01:51:13.149Z,25.30
2024-02-16T01:52:13.132Z,25.55
2024-02-16T01:53:13.174Z,24.74
2024-02-16T01:54:13.271Z,23.97
2024-02-16T01:55:13.284Z,26.30
2024-02-16T01:56:13.249Z,26.39
2024-02-16T01:57:13.313Z,26.84
2024-02-16T01:58:13.272Z,26.73
2024-02-16T01:59:13.297Z,25.34
2024-02-16T02:00:13.346Z,24.69
2024-02-16T02:01:13.325Z,23.65
2024-02-16T02:02:13.289Z,22.74
2024-02-16T02:03:13.327Z,22.43
2024-02-16T02:04:13.316Z,21.71
2024-02-16T02:05:13.479Z,21.25
2024-02-16T02:06:13.478Z,21.17
2024-02-16T02:07:13.422Z,20.45
2024-02-16T02:08:13.347Z,20.64
2024-02-16T02:09:13.793Z,20.79
2024-02-16T02:10:13.418Z,24.29
2024-02-16T02:11:13.418Z,28.82
2024-02-16T02:12:13.514Z,31.84
2024-02-16T02:13:13.362Z,37.45
2024-02-16T02:14:13.429Z,41.67
2024-02-16T02:15:13.632Z,43.63
2024-02-16T02:16:13.632Z,44.25
2024-02-16T02:17:13.572Z,45.35
2024-02-16T02:18:14.686Z,42.71
2024-02-16T02:19:13.713Z,45.36
2024-02-16T02:20:13.809Z,38.94
2024-02-16T02:21:13.676Z,30.24
2024-02-16T02:22:13.721Z,28.28
2024-02-16T02:23:13.854Z,27.94
2024-02-16T02:24:13.889Z,28.46
2024-02-16T02:25:13.885Z,28.74
2024-02-16T02:26:13.900Z,28.84
2024-02-16T02:27:14.023Z,28.53
2024-02-16T02:28:13.996Z,27.22
2024-02-16T02:29:14.036Z,25.85
2024-02-16T02:30:14.242Z,24.44
2024-02-16T02:31:14.132Z,24.24
2024-02-16T02:32:14.239Z,22.77
2024-02-16T02:33:14.370Z,21.45
2024-02-16T02:34:14.332Z,19.94
2024-02-16T02:35:14.406Z,18.42
2024-02-16T02:36:14.526Z,17.93
2024-02-16T02:37:14.379Z,16.84
2024-02-16T02:38:14.461Z,16.58
2024-02-16T02:39:14.428Z,16.95
2024-02-16T02:40:15.025Z,16.96
2024-02-16T02:41:14.472Z,16.30
2024-02-16T02:42:14.570Z,16.22
2024-02-16T02:43:14.532Z,16.50
2024-02-16T02:44:14.535Z,16.99
2024-02-16T02:45:14.775Z,16.44
2024-02-16T02:46:14.655Z,16.71
2024-02-16T02:47:14.710Z,16.97
2024-02-16T02:48:14.976Z,17.93
2024-02-16T02:49:14.928Z,18.61
2024-02-16T02:50:14.883Z,20.13
2024-02-16T02:51:14.968Z,20.52
2024-02-16T02:52:15.051Z,21.36
2024-02-16T02:53:15.068Z,21.70
2024-02-16T02:54:15.145Z,22.38
2024-02-16T02:55:15.217Z,22.90
2024-02-16T02:56:15.211Z,23.79
2024-02-16T02:57:15.270Z,26.63
2024-02-16T02:58:15.258Z,29.56
2024-02-16T02:59:15.230Z,31.04
2024-02-16T03:00:15.484Z,31.26
2024-02-16T03:01:15.465Z,31.01
2024-02-16T03:02:15.495Z,30.23
2024-02-16T03:03:15.572Z,30.29
2024-02-16T03:04:15.625Z,30.17
2024-02-16T03:05:15.506Z,31.06
2024-02-16T03:06:15.615Z,32.84
2024-02-16T03:07:15.644Z,33.88
2024-02-16T03:08:15.717Z,34.57
2024-02-16T03:09:15.736Z,35.01
2024-02-16T03:10:15.594Z,35.94
2024-02-16T03:11:15.685Z,36.97
2024-02-16T03:12:15.809Z,37.73
2024-02-16T03:13:15.710Z,37.73
2024-02-16T03:14:15.758Z,37.79
2024-02-16T03:15:15.904Z,37.03
2024-02-16T03:16:15.856Z,35.90
2024-02-16T03:17:15.852Z,35.53
2024-02-16T03:18:16.085Z,36.05
2024-02-16T03:19:16.044Z,38.56
2024-02-16T03:20:16.064Z,39.32
2024-02-16T03:21:16.075Z,40.22
2024-02-16T03:22:16.124Z,41.41
2024-02-16T03:23:16.119Z,42.43
2024-02-16T03:24:16.147Z,42.58
2024-02-16T03:25:16.427Z,43.21
2024-02-16T03:26:16.327Z,43.97
2024-02-16T03:27:16.409Z,42.79
2024-02-16T03:28:16.376Z,43.94
2024-02-16T03:29:16.458Z,44.19
2024-02-16T03:30:16.536Z,43.08
2024-02-16T03:31:16.475Z,42.91
2024-02-16T03:32:16.546Z,41.93
2024-02-16T03:33:16.610Z,42.58
2024-02-16T03:34:16.923Z,41.37
2024-02-16T03:35:16.608Z,40.39
2024-02-16T03:36:16.758Z,41.18
2024-02-16T03:37:16.629Z,42.04
2024-02-16T03:38:16.627Z,40.54
2024-02-16T03:39:16.761Z,40.07
2024-02-16T03:40:16.719Z,38.87
2024-02-16T03:41:16.762Z,39.18
2024-02-16T03:42:16.883Z,36.59
2024-02-16T03:43:16.870Z,37.04
2024-02-16T03:44:16.883Z,38.88
2024-02-16T03:45:17.011Z,39.84
2024-02-16T03:46:16.920Z,40.25
2024-02-16T03:47:18.030Z,40.26
2024-02-16T03:48:17.251Z,40.10
2024-02-16T03:49:17.097Z,40.45
2024-02-16T03:50:16.926Z,38.33
2024-02-16T03:51:17.002Z,36.23
2024-02-16T03:52:16.920Z,34.34
2024-02-16T03:53:16.944Z,32.12
2024-02-16T03:54:17.041Z,29.56
2024-02-16T03:55:16.969Z,28.37
2024-02-16T03:56:16.947Z,29.65
2024-02-16T03:57:17.004Z,28.35
2024-02-16T03:58:16.982Z,28.18
2024-02-16T03:59:16.952Z,27.58
2024-02-16T04:00:17.074Z,27.75
2024-02-16T04:01:17.102Z,27.02
2024-02-16T04:02:16.918Z,27.70
2024-02-16T04:03:16.921Z,27.04
2024-02-16T04:04:16.981Z,28.35
2024-02-16T04:05:17.508Z,28.64
2024-02-16T04:06:17.045Z,28.29
2024-02-16T04:07:17.057Z,27.34
2024-02-16T04:08:17.037Z,26.21
2024-02-16T04:09:17.103Z,26.51
2024-02-16T04:10:17.187Z,26.32
2024-02-16T04:11:17.219Z,26.26
2024-02-16T04:12:17.185Z,27.25
2024-02-16T04:13:17.230Z,27.80
2024-02-16T04:14:17.246Z,27.62
2024-02-16T04:15:17.340Z,27.40
2024-02-16T04:16:17.298Z,26.11
2024-02-16T04:17:17.273Z,27.99
2024-02-16T04:18:17.390Z,33.26
2024-02-16T04:19:17.453Z,35.25
2024-02-16T04:20:17.425Z,32.37
2024-02-16T04:21:17.429Z,27.63
2024-02-16T04:22:17.462Z,25.32
2024-02-16T04:23:17.542Z,25.78
2024-02-16T04:24:17.619Z,25.45
2024-02-16T04:25:17.618Z,22.19
2024-02-16T04:26:17.648Z,18.40
2024-02-16T04:27:17.745Z,17.15
2024-02-16T04:28:17.734Z,16.63
2024-02-16T04:29:17.780Z,16.54
2024-02-16T04:30:17.860Z,17.46
2024-02-16T04:31:17.828Z,18.36
2024-02-16T04:32:17.839Z,19.16
2024-02-16T04:33:18.116Z,19.92
2024-02-16T04:34:18.059Z,20.54
2024-02-16T04:35:18.168Z,21.00
2024-02-16T04:36:18.028Z,21.38
2024-02-16T04:37:18.076Z,21.79
2024-02-16T04:38:18.088Z,23.40
2024-02-16T04:39:18.177Z,27.10
2024-02-16T04:40:18.221Z,31.70
2024-02-16T04:41:18.287Z,35.33
2024-02-16T04:42:18.331Z,36.35
2024-02-16T04:43:18.220Z,34.98
2024-02-16T04:44:18.299Z,31.83
2024-02-16T04:45:18.490Z,29.40
2024-02-16T04:46:18.340Z,27.65
2024-02-16T04:47:18.433Z,26.85
2024-02-16T04:48:18.559Z,26.31
2024-02-16T04:49:18.669Z,27.51
2024-02-16T04:50:18.518Z,27.38
2024-02-16T04:51:18.538Z,27.83
2024-02-16T04:52:18.563Z,28.73
2024-02-16T04:53:18.625Z,30.05
2024-02-16T04:54:18.672Z,29.45
2024-02-16T04:55:18.832Z,29.64
2024-02-16T04:56:18.780Z,30.44
2024-02-16T04:57:18.748Z,29.68
2024-02-16T04:58:18.757Z,29.47
2024-02-16T04:59:18.827Z,29.27
2024-02-16T05:00:18.957Z,28.78
2024-02-16T05:01:18.946Z,27.91
2024-02-16T05:02:26.466Z,0.50
2024-02-16T05:03:26.578Z,0.50
2024-02-16T05:04:26.506Z,0.50
2024-02-16T05:05:26.587Z,0.50
2024-02-16T05:06:26.662Z,0.50
2024-02-16T05:07:26.531Z,0.52
2024-02-16T05:08:26.562Z,0.52
2024-02-16T05:09:26.559Z,0.53
2024-02-16T05:10:26.660Z,0.54
2024-02-16T05:11:26.639Z,0.52
2024-02-16T05:12:26.582Z,0.54
2024-02-16T05:13:26.513Z,0.56
2024-02-16T05:14:26.600Z,0.60
2024-02-16T05:15:26.579Z,0.62
2024-02-16T05:16:26.528Z,0.64
2024-02-16T05:17:26.650Z,0.65
2024-02-16T05:18:26.695Z,0.67
2024-02-16T05:19:26.692Z,0.66
2024-02-16T05:20:26.657Z,0.66
2024-02-16T05:21:26.617Z,0.66
2024-02-16T05:22:26.606Z,0.63
2024-02-16T05:23:26.466Z,0.64
2024-02-16T05:24:26.538Z,0.62
2024-02-16T05:25:26.599Z,0.64
2024-02-16T05:26:26.510Z,0.65
2024-02-16T05:27:26.609Z,0.67
2024-02-16T05:28:26.525Z,0.71
2024-02-16T05:29:26.537Z,0.72
2024-02-16T05:30:26.693Z,0.72
2024-02-16T05:31:26.541Z,0.73
2024-02-16T05:32:26.595Z,0.73
2024-02-16T05:33:26.644Z,0.73
2024-02-16T05:34:26.671Z,0.73
2024-02-16T05:35:26.574Z,0.75
2024-02-16T05:36:26.602Z,0.77
2024-02-16T05:37:26.557Z,0.79
2024-02-16T05:38:26.627Z,0.80
2024-02-16T05:39:26.646Z,0.80
2024-02-16T05:40:26.630Z,0.79
2024-02-16T05:41:26.501Z,0.84
2024-02-16T05:42:26.558Z,0.88
2024-02-16T05:43:26.537Z,1.00
2024-02-16T05:44:26.631Z,1.06
2024-02-16T05:45:26.711Z,1.04
2024-02-16T05:46:26.539Z,0.99
2024-02-16T05:47:26.553Z,1.00
2024-02-16T05:48:26.628Z,1.00
2024-02-16T05:49:26.667Z,0.96
2024-02-16T05:50:26.768Z,0.94
2024-02-16T05:51:26.658Z,0.94
2024-02-16T05:52:26.784Z,0.97
2024-02-16T05:53:26.765Z,0.94
2024-02-16T05:54:26.812Z,0.91
2024-02-16T05:55:26.876Z,0.88
2024-02-16T05:56:26.920Z,0.85
2024-02-16T05:57:26.968Z,0.83
2024-02-16T05:58:26.920Z,0.81
2024-02-16T05:59:27.052Z,0.77
2024-02-16T06:00:27.600Z,0.75
2024-02-16T06:01:27.171Z,0.75
2024-02-16T06:02:27.160Z,0.74
2024-02-16T06:03:27.185Z,0.73
2024-02-16T06:04:27.321Z,0.74
2024-02-16T06:05:27.407Z,0.77
2024-02-16T06:06:27.424Z,0.79
2024-02-16T06:07:27.532Z,0.80
2024-02-16T06:08:30.617Z,0.81
2024-02-16T06:09:27.510Z,0.83
2024-02-16T06:10:27.454Z,0.80
2024-02-16T06:11:27.536Z,0.80
2024-02-16T06:12:27.489Z,0.79
2024-02-16T06:13:27.451Z,0.82
2024-02-16T06:14:27.457Z,0.84
2024-02-16T06:15:27.589Z,0.85
2024-02-16T06:16:27.485Z,0.83
2024-02-16T06:17:27.464Z,0.81
2024-02-16T06:18:27.571Z,0.82
2024-02-16T06:19:27.584Z,0.81
2024-02-16T06:20:27.503Z,0.79
2024-02-16T06:21:27.507Z,0.78
2024-02-16T06:22:27.461Z,0.77
2024-02-16T06:23:27.560Z,0.76
2024-02-16T06:24:27.530Z,0.78
2024-02-16T06:25:27.526Z,0.79
2024-02-16T06:26:27.522Z,0.79
2024-02-16T06:27:27.544Z,0.76
2024-02-16T06:28:27.425Z,0.74
2024-02-16T06:29:27.432Z,0.74
2024-02-16T06:30:27.593Z,0.72
2024-02-16T06:31:27.570Z,0.77
2024-02-16T06:32:27.590Z,0.78
2024-02-16T06:33:27.561Z,0.79
2024-02-16T06:34:27.588Z,0.79
2024-02-16T06:35:27.455Z,0.79
2024-02-16T06:36:27.575Z,0.80
2024-02-16T06:37:27.476Z,0.80
2024-02-16T06:38:27.508Z,0.78
2024-02-16T06:39:27.531Z,0.76
2024-02-16T06:40:27.573Z,0.75
2024-02-16T06:41:27.599Z,0.74
2024-02-16T06:42:27.591Z,0.74
2024-02-16T06:43:27.534Z,0.73
2024-02-16T06:44:27.539Z,0.72
2024-02-16T06:45:27.440Z,0.71
2024-02-16T06:46:27.623Z,0.73
2024-02-16T06:47:27.545Z,0.74
2024-02-16T06:48:27.611Z,0.75
2024-02-16T06:49:27.629Z,0.77
2024-02-16T06:50:27.544Z,0.79
2024-02-16T06:51:27.724Z,0.83
2024-02-16T06:52:27.504Z,0.87
2024-02-16T06:53:27.507Z,0.87
2024-02-16T06:54:27.556Z,0.91
2024-02-16T06:55:27.511Z,1.04
2024-02-16T06:56:27.574Z,1.10
2024-02-16T06:57:27.519Z,1.12
2024-02-16T06:58:27.569Z,1.07
2024-02-16T06:59:27.623Z,1.00
2024-02-16T07:00:27.658Z,0.94
2024-02-16T07:01:27.729Z,0.95
2024-02-16T07:02:27.674Z,0.95
2024-02-16T07:03:27.784Z,0.94
2024-02-16T07:04:27.850Z,0.91
2024-02-16T07:05:27.870Z,0.88
2024-02-16T07:06:28.072Z,0.81
2024-02-16T07:07:28.055Z,0.81
2024-02-16T07:08:28.002Z,0.79
2024-02-16T07:09:28.138Z,0.76
2024-02-16T07:10:28.068Z,0.74
2024-02-16T07:11:28.194Z,0.74
2024-02-16T07:12:28.212Z,0.75
2024-02-16T07:13:28.223Z,0.78
2024-02-16T07:14:28.240Z,0.77
2024-02-16T07:15:28.366Z,0.75
2024-02-16T07:16:28.313Z,0.77
2024-02-16T07:17:28.388Z,0.71
2024-02-16T07:18:28.636Z,0.64
2024-02-16T07:19:28.553Z,0.58
2024-02-16T07:20:28.511Z,0.52
2024-02-16T07:21:28.598Z,0.50
2024-02-16T07:22:28.511Z,0.50
2024-02-16T07:23:28.614Z,0.50
2024-02-16T07:24:28.726Z,0.50
2024-02-16T07:25:28.693Z,0.50
2024-02-16T07:26:29.164Z,0.50
2024-02-16T07:27:28.788Z,0.50
2024-02-16T07:28:28.774Z,0.51
2024-02-16T07:29:28.858Z,0.51
2024-02-16T07:30:36.875Z,0.55
2024-02-16T07:31:29.893Z,0.55
2024-02-16T07:32:28.896Z,0.57
2024-02-16T07:33:29.053Z,0.60
2024-02-16T07:34:28.973Z,0.67
2024-02-16T07:35:28.895Z,0.72
2024-02-16T07:36:28.953Z,0.66
2024-02-16T07:37:28.885Z,0.58
2024-02-16T07:38:28.858Z,0.58
2024-02-16T07:39:28.990Z,0.69
2024-02-16T07:40:28.835Z,0.74
2024-02-16T07:41:28.889Z,0.87
2024-02-16T07:42:28.995Z,0.86
2024-02-16T07:43:28.868Z,0.81
2024-02-16T07:44:28.876Z,0.73
2024-02-16T07:45:29.146Z,0.69
2024-02-16T07:46:28.915Z,0.73
2024-02-16T07:47:29.039Z,0.77
2024-02-16T07:48:29.123Z,0.84
2024-02-16T07:49:29.097Z,0.87
2024-02-16T07:50:29.113Z,0.88
2024-02-16T07:51:29.101Z,0.92
2024-02-16T07:52:29.148Z,1.02
2024-02-16T07:53:29.224Z,1.10
2024-02-16T07:54:29.256Z,1.04
2024-02-16T07:55:29.285Z,0.94
2024-02-16T07:56:29.414Z,0.86
2024-02-16T07:57:29.349Z,0.85
2024-02-16T07:58:29.353Z,0.95
2024-02-16T07:59:29.379Z,1.23
2024-02-16T08:00:29.459Z,1.32
2024-02-16T08:01:29.480Z,1.33
2024-02-16T08:02:29.462Z,1.21
2024-02-16T08:03:29.548Z,1.20
2024-02-16T08:04:29.547Z,1.31
2024-02-16T08:05:29.667Z,1.20
2024-02-16T08:06:29.943Z,1.27
2024-02-16T08:07:29.904Z,1.34
2024-02-16T08:08:29.636Z,1.51
2024-02-16T08:09:29.813Z,1.66
2024-02-16T08:10:29.757Z,1.60
2024-02-16T08:11:29.878Z,1.50
2024-02-16T08:12:29.841Z,1.30
2024-02-16T08:13:29.867Z,1.11
2024-02-16T08:14:29.944Z,0.88
2024-02-16T08:15:30.077Z,0.78
2024-02-16T08:16:30.021Z,0.72
2024-02-16T08:17:30.018Z,0.66
2024-02-16T08:18:30.210Z,0.62
2024-02-16T08:19:30.088Z,0.59
2024-02-16T08:20:30.078Z,0.57
2024-02-16T08:21:30.162Z,0.57
2024-02-16T08:22:30.102Z,0.57
2024-02-16T08:23:30.120Z,0.57
2024-02-16T08:24:30.206Z,0.53
2024-02-16T08:25:30.136Z,0.52
2024-02-16T08:26:30.144Z,0.50
2024-02-16T08:27:30.244Z,0.51
2024-02-16T08:28:30.073Z,0.50
2024-02-16T08:29:30.099Z,0.54
2024-02-16T08:30:30.295Z,0.61
2024-02-16T08:31:30.073Z,0.61
2024-02-16T08:32:30.111Z,0.58
2024-02-16T08:33:30.351Z,0.58
2024-02-16T08:34:30.276Z,0.65
2024-02-16T08:35:30.283Z,0.75
2024-02-16T08:36:30.374Z,0.86
2024-02-16T08:37:30.460Z,0.96
2024-02-16T08:38:30.519Z,0.82
2024-02-16T08:39:30.469Z,0.64
2024-02-16T08:40:30.429Z,0.48
2024-02-16T08:41:30.561Z,0.44
2024-02-16T08:42:30.595Z,0.50
2024-02-16T08:43:30.572Z,0.53
2024-02-16T08:44:30.553Z,0.55
2024-02-16T08:45:30.735Z,0.60
2024-02-16T08:46:30.915Z,0.72
2024-02-16T08:47:30.826Z,0.78
2024-02-16T08:48:30.959Z,0.81
2024-02-16T08:49:30.860Z,0.78
2024-02-16T08:50:30.804Z,0.70
2024-02-16T08:51:31.082Z,0.70
2024-02-16T08:52:30.918Z,0.79
2024-02-16T08:53:30.959Z,0.97
2024-02-16T08:54:31.096Z,1.08
2024-02-16T08:55:31.157Z,1.02
2024-02-16T08:56:31.667Z,1.02
2024-02-16T08:57:31.312Z,0.96
2024-02-16T08:58:31.261Z,0.89
2024-02-16T08:59:31.287Z,0.92
2024-02-16T09:00:31.507Z,0.82
2024-02-16T09:01:31.411Z,0.76
2024-02-16T09:02:31.415Z,0.77
2024-02-16T09:03:31.532Z,0.80
2024-02-16T09:04:31.457Z,0.81
2024-02-16T09:05:31.723Z,0.74
2024-02-16T09:06:31.823Z,0.72
2024-02-16T09:07:31.619Z,0.70
2024-02-16T09:08:31.640Z,0.70
2024-02-16T09:09:31.723Z,0.65
2024-02-16T09:10:31.805Z,0.61
2024-02-16T09:11:31.809Z,0.58
2024-02-16T09:12:31.808Z,0.57
2024-02-16T09:13:33.912Z,0.57
2024-02-16T09:14:31.651Z,0.52
2024-02-16T09:15:31.754Z,0.52
2024-02-16T09:16:31.716Z,0.52
2024-02-16T09:17:31.701Z,0.51
2024-02-16T09:18:31.769Z,0.53
2024-02-16T09:19:31.787Z,0.59
2024-02-16T09:20:32.106Z,0.57
2024-02-16T09:21:31.932Z,0.54
2024-02-16T09:23:31.697Z,0.50
2024-02-16T09:24:31.821Z,0.50
2024-02-16T09:25:31.662Z,0.53
2024-02-16T09:26:31.869Z,0.55
2024-02-16T09:27:31.732Z,0.57
2024-02-16T09:28:31.688Z,0.62
2024-02-16T09:29:31.660Z,0.65
2024-02-16T09:30:31.747Z,0.63
2024-02-16T09:31:31.696Z,0.61
2024-02-16T09:32:31.696Z,0.57
2024-02-16T09:33:31.852Z,0.54
2024-02-16T09:34:31.840Z,0.51
2024-02-16T09:35:31.726Z,0.51
2024-02-16T09:36:31.938Z,0.50
2024-02-16T09:37:31.702Z,0.47
2024-02-16T09:38:31.728Z,0.47
2024-02-16T09:39:31.740Z,0.53
2024-02-16T09:40:31.689Z,0.53
2024-02-16T09:41:31.760Z,0.53
2024-02-16T09:42:31.797Z,0.50
2024-02-16T09:43:31.709Z,0.55
2024-02-16T09:44:31.786Z,0.51
2024-02-16T09:45:31.793Z,0.57
2024-02-16T09:46:31.804Z,0.56
2024-02-16T09:47:31.800Z,0.50
2024-02-16T09:48:31.942Z,0.52
2024-02-16T09:49:38.985Z,0.56
2024-02-16T09:50:32.946Z,0.56
2024-02-16T09:51:31.887Z,0.50
2024-02-16T09:52:31.714Z,0.40
2024-02-16T09:53:31.794Z,0.29
2024-02-16T09:54:31.736Z,0.26
2024-02-16T09:55:31.718Z,0.40
2024-02-16T09:56:31.787Z,0.55
2024-02-16T09:57:31.890Z,0.68
2024-02-16T09:58:31.789Z,0.66
2024-02-16T09:59:31.781Z,0.68
2024-02-16T10:00:31.876Z,0.77
2024-02-16T10:01:31.822Z,0.82
2024-02-16T10:02:31.836Z,0.85
2024-02-16T10:03:31.885Z,0.78
2024-02-16T10:04:35.652Z,0.74
2024-02-16T10:05:32.878Z,0.69
2024-02-16T10:06:31.867Z,0.66
2024-02-16T10:07:31.915Z,0.66
2024-02-16T10:08:31.811Z,0.67
2024-02-16T10:09:31.933Z,0.65
2024-02-16T10:10:31.824Z,0.62
2024-02-16T10:11:32.050Z,0.58
2024-02-16T10:12:31.938Z,0.56
2024-02-16T10:13:31.860Z,0.40
2024-02-16T10:14:31.878Z,0.43
2024-02-16T10:15:31.893Z,0.52
2024-02-16T10:16:31.878Z,0.51
2024-02-16T10:17:31.970Z,0.60
2024-02-16T10:18:32.147Z,0.66
2024-02-16T10:19:31.991Z,0.62
2024-02-16T10:20:31.967Z,0.65
2024-02-16T10:21:32.349Z,0.62
2024-02-16T10:22:47.168Z,0.65
2024-02-16T10:24:32.052Z,0.65
2024-02-16T10:25:33.484Z,0.65
2024-02-16T10:26:32.075Z,0.67
2024-02-16T10:27:32.077Z,0.73
2024-02-16T10:28:31.965Z,0.75
2024-02-16T10:29:31.975Z,0.73
2024-02-16T10:30:32.058Z,0.77
2024-02-16T10:31:32.206Z,0.84
2024-02-16T10:32:32.025Z,0.73
2024-02-16T10:33:32.153Z,0.65
2024-02-16T10:34:32.086Z,0.63
2024-02-16T10:35:31.999Z,0.66
2024-02-16T10:36:32.156Z,0.66
2024-02-16T10:37:32.038Z,0.70
2024-02-16T10:38:32.036Z,0.73
2024-02-16T10:39:32.117Z,0.66
2024-02-16T10:40:32.073Z,0.68
2024-02-16T10:41:32.084Z,0.66
2024-02-16T10:42:32.096Z,0.63
2024-02-16T10:43:32.174Z,0.55
2024-02-16T10:44:32.055Z,0.50
2024-02-16T10:45:32.153Z,0.51
2024-02-16T10:46:32.068Z,0.53
2024-02-16T10:47:32.099Z,0.50
2024-02-16T10:48:32.192Z,0.44
2024-02-16T10:49:32.298Z,0.38
2024-02-16T10:50:32.186Z,0.39
2024-02-16T10:51:32.113Z,0.43
2024-02-16T10:52:32.113Z,0.52
2024-02-16T10:53:32.130Z,0.50
2024-02-16T10:54:32.073Z,0.51
2024-02-16T10:55:32.086Z,0.50
2024-02-16T10:56:32.165Z,0.51
2024-02-16T10:57:32.154Z,0.51
2024-02-16T10:58:32.074Z,0.54
2024-02-16T10:59:32.093Z,0.50
2024-02-16T11:00:32.406Z,0.52
2024-02-16T11:01:32.251Z,0.50
2024-02-16T11:02:32.336Z,0.50
2024-02-16T11:03:33.296Z,0.49
2024-02-16T11:04:32.390Z,0.50
2024-02-16T11:05:32.360Z,0.50
2024-02-16T11:06:32.498Z,0.46
2024-02-16T11:07:32.506Z,0.54
2024-02-16T11:08:32.458Z,0.67
2024-02-16T11:09:32.540Z,0.70
2024-02-16T11:10:33.662Z,0.57
2024-02-16T11:11:32.805Z,0.53
2024-02-16T11:12:32.732Z,0.62
2024-02-16T11:13:32.713Z,0.57
2024-02-16T11:14:32.761Z,0.50
2024-02-16T11:15:32.804Z,0.50
2024-02-16T11:16:32.903Z,0.49
2024-02-16T11:17:32.746Z,0.48
2024-02-16T11:18:33.153Z,0.37
2024-02-16T11:19:32.953Z,0.33
2024-02-16T11:20:32.959Z,0.35
2024-02-16T11:21:33.000Z,0.39
2024-02-16T11:22:32.987Z,0.41
2024-02-16T11:23:32.975Z,0.49
2024-02-16T11:24:33.058Z,0.49
2024-02-16T11:25:33.020Z,0.50
2024-02-16T11:26:33.125Z,0.48
2024-02-16T11:27:33.270Z,0.50
2024-02-16T11:28:33.143Z,0.49
2024-02-16T11:29:33.154Z,0.47
2024-02-16T11:30:33.243Z,0.50
2024-02-16T11:31:33.217Z,0.51
2024-02-16T11:32:33.505Z,0.53
2024-02-16T11:33:33.522Z,0.50
2024-02-16T11:34:33.460Z,0.56
2024-02-16T11:35:33.363Z,0.56
2024-02-16T11:36:33.586Z,0.62
2024-02-16T11:37:33.526Z,0.67
2024-02-16T11:38:33.501Z,0.70
2024-02-16T11:39:33.605Z,0.60
2024-02-16T11:40:33.591Z,0.58
2024-02-16T11:41:34.022Z,0.54
2024-02-16T11:42:33.674Z,0.53
2024-02-16T11:43:33.646Z,0.50
2024-02-16T11:44:33.640Z,0.52
2024-02-16T11:45:33.735Z,0.50
2024-02-16T11:46:33.782Z,0.56
2024-02-16T11:47:33.823Z,0.53
2024-02-16T11:48:33.996Z,0.60
2024-02-16T11:49:33.926Z,0.67
2024-02-16T11:50:33.777Z,0.73
2024-02-16T11:51:34.083Z,0.71
2024-02-16T11:52:33.973Z,0.68
2024-02-16T11:53:34.025Z,0.65
2024-02-16T11:54:34.156Z,0.62
2024-02-16T11:55:34.144Z,0.68
2024-02-16T11:56:34.142Z,0.60
2024-02-16T11:57:34.402Z,0.51
2024-02-16T11:58:34.269Z,0.51
2024-02-16T11:59:34.322Z,0.52
2024-02-16T12:00:34.477Z,0.57
2024-02-16T12:01:34.553Z,0.59
2024-02-16T12:02:34.394Z,0.67
2024-02-16T12:03:34.546Z,0.56
2024-02-16T12:04:39.510Z,0.58
2024-02-16T12:05:35.536Z,0.52
2024-02-16T12:06:34.744Z,0.50
2024-02-16T12:07:34.715Z,0.46
2024-02-16T12:08:34.520Z,0.41
2024-02-16T12:09:34.713Z,0.34
2024-02-16T12:10:34.566Z,0.48
2024-02-16T12:11:34.668Z,0.48
2024-02-16T12:12:34.884Z,0.50
2024-02-16T12:13:34.541Z,0.52
2024-02-16T12:14:34.589Z,0.50
2024-02-16T12:15:34.617Z,0.50
2024-02-16T12:16:34.577Z,0.51
2024-02-16T12:17:34.585Z,0.51
2024-02-16T12:18:34.713Z,0.55
2024-02-16T12:19:34.601Z,0.57
2024-02-16T12:20:34.622Z,0.59
2024-02-16T12:21:34.655Z,0.60
2024-02-16T12:22:34.644Z,0.59
2024-02-16T12:23:34.715Z,0.63
2024-02-16T12:24:34.731Z,0.63
2024-02-16T12:25:34.750Z,0.62
2024-02-16T12:26:34.859Z,0.59
2024-02-16T12:27:35.010Z,0.69
2024-02-16T12:28:34.891Z,0.68
2024-02-16T12:29:34.967Z,0.65
2024-02-16T12:30:35.152Z,0.68
2024-02-16T12:31:35.018Z,0.60
2024-02-16T12:32:35.087Z,0.60
2024-02-16T12:33:35.238Z,0.61
2024-02-16T12:34:35.147Z,0.62
2024-02-16T12:35:35.056Z,0.61
2024-02-16T12:36:35.137Z,0.69
2024-02-16T12:37:35.054Z,0.82
2024-02-16T12:38:35.055Z,0.89
2024-02-16T12:39:35.148Z,1.04
2024-02-16T12:40:35.128Z,1.02
2024-02-16T12:41:35.077Z,1.05
2024-02-16T12:42:35.095Z,1.06
2024-02-16T12:43:35.116Z,1.11
2024-02-16T12:44:35.148Z,1.23
2024-02-16T12:45:35.274Z,1.23
2024-02-16T12:46:35.311Z,1.23
2024-02-16T12:47:35.365Z,1.28
2024-02-16T12:48:35.525Z,1.27
2024-02-16T12:49:35.370Z,1.25
2024-02-16T12:50:35.308Z,1.28
2024-02-16T12:51:35.708Z,1.34
2024-02-16T12:52:37.237Z,1.35
2024-02-16T12:53:36.380Z,1.35
2024-02-16T12:54:35.403Z,1.29
2024-02-16T12:55:35.352Z,1.29
2024-02-16T12:56:35.493Z,1.35
2024-02-16T12:57:35.483Z,1.31
2024-02-16T12:58:35.438Z,1.30
2024-02-16T12:59:35.422Z,1.34
2024-02-16T13:00:35.785Z,1.67
2024-02-16T13:01:35.436Z,1.63
2024-02-16T13:02:35.438Z,2.32
2024-02-16T13:03:35.420Z,2.25
2024-02-16T13:04:35.558Z,1.94
2024-02-16T13:05:35.444Z,1.75
2024-02-16T13:06:35.572Z,1.70
2024-02-16T13:07:35.501Z,1.76
2024-02-16T13:08:35.501Z,1.52
2024-02-16T13:09:35.638Z,1.46
2024-02-16T13:10:35.543Z,1.39